San Vicente la Barquera

latitud = 43° 23' 40''N | longitud = 004° 23' 27''W
40 metros sobre el nivel del mar | datos mensuales

Fecha, hora, temperatura, viento dirección y velocidad, humedad y presión.

  • 22-11-2017 09:00:00 | 15.90°C | Sur |6.00 km/h | 42.00% | 1004.10 hPa
  • 22-11-2017 08:00:00 | 15.80°C | Calma |0.00 km/h | 38.00% | 1004.30 hPa
  • 22-11-2017 07:00:00 | 14.60°C | Sudoeste |8.00 km/h | 41.00% | 1004.60 hPa
  • 22-11-2017 06:00:00 | 14.00°C | Sudoeste |5.00 km/h | 43.00% | 1004.80 hPa
  • 22-11-2017 05:00:00 | 9.50°C | Sur |13.00 km/h | 52.00% | 1005.60 hPa
  • 22-11-2017 04:00:00 | 15.10°C | Oeste |6.00 km/h | 41.00% | 1006.50 hPa
  • 22-11-2017 03:00:00 | 13.40°C | Oeste |5.00 km/h | 48.00% | 1007.30 hPa
  • 22-11-2017 02:00:00 | 6.40°C | Sur |16.00 km/h | 78.00% | 1008.20 hPa
  • 22-11-2017 01:00:00 | 6.70°C | Sudoeste |17.00 km/h | 83.00% | 1009.20 hPa
  • 22-11-2017 00:00:00 | 6.40°C | Sur |16.00 km/h | 90.00% | 1009.90 hPa
  • 21-11-2017 23:00:00 | 7.80°C | Sudoeste |13.00 km/h | 86.00% | 1010.30 hPa
  • 21-11-2017 22:00:00 | 8.10°C | Sudoeste |15.00 km/h | 87.00% | 1010.50 hPa
  • 21-11-2017 21:00:00 | 8.90°C | Sudoeste |15.00 km/h | 88.00% | 1010.90 hPa
  • 21-11-2017 20:00:00 | 9.40°C | Sur |10.00 km/h | 91.00% | 1011.40 hPa
  • 21-11-2017 19:00:00 | 11.70°C | Sudoeste |9.00 km/h | 88.00% | 1011.90 hPa
  • 21-11-2017 18:00:00 | 13.30°C | Sur |4.00 km/h | 78.00% | 1012.00 hPa
  • 21-11-2017 17:00:00 | 14.00°C | Calma |0.00 km/h | 81.00% | 1012.30 hPa
  • 21-11-2017 16:00:00 | 15.80°C | Este |3.00 km/h | 71.00% | 1012.70 hPa
  • 21-11-2017 15:00:00 | 15.50°C | Este |4.00 km/h | 63.00% | 1012.90 hPa
  • 21-11-2017 14:00:00 | 15.70°C | Norte |4.00 km/h | 54.00% | 1013.60 hPa
  • 21-11-2017 13:00:00 | 15.00°C | Noroeste |3.00 km/h | 59.00% | 1014.50 hPa
  • 21-11-2017 12:00:00 | 14.40°C | Calma |0.00 km/h | 58.00% | 1015.40 hPa
  • 21-11-2017 11:00:00 | 12.30°C | Sudoeste |11.00 km/h | 68.00% | 1015.60 hPa
  • 21-11-2017 10:00:00 | 8.00°C | Sudoeste |16.00 km/h | 86.00% | 1015.70 hPa